Time;durP1;ratioP1;P1;durP2;ratioP2;P2;SDS_P1;SDS_P2;PMS_P1;PMS_P2;Temp;Humidity;BMP_temperature;BMP_pressure;BME280_temperature;BME280_humidity;BME280_pressure;Samples;Min_cycle;Max_cycle;Signal;HPM_P1;HPM_P2
2023/07/10 00:04:20;;;;;;;6.90;3.72;;;;;;;23.38;37.90;98087.50;10517408;28;20083;-74
2023/07/10 00:09:40;;;;;;;7.80;3.95;;;;;;;23.46;37.96;98082.00;10518134;28;20072;-74
2023/07/10 00:15:01;;;;;;;7.28;4.47;;;;;;;23.52;38.08;98079.25;10546158;28;20131;-74
2023/07/10 00:20:26;;;;;;;9.93;3.83;;;;;;;23.55;38.16;98068.66;10502808;28;20063;-74
2023/07/10 00:25:47;;;;;;;8.73;4.13;;;;;;;23.51;38.01;98060.72;10516745;28;20036;-75
2023/07/10 00:31:08;;;;;;;7.28;3.55;;;;;;;23.39;37.93;98054.78;10502467;28;20118;-74
2023/07/10 00:36:33;;;;;;;10.13;4.20;;;;;;;23.25;38.28;98062.97;10502374;28;20063;-74
2023/07/10 00:41:56;;;;;;;6.10;3.75;;;;;;;23.17;38.29;98059.97;10502308;28;20040;-74
2023/07/10 00:47:32;;;;;;;6.13;4.00;;;;;;;23.07;38.43;98061.19;10502042;28;20135;-75
2023/07/10 00:52:53;;;;;;;9.32;4.18;;;;;;;22.97;38.86;98055.25;10517281;28;20537;-74
2023/07/10 00:58:28;;;;;;;8.73;3.78;;;;;;;22.88;38.81;98045.09;10515414;28;20103;-75
2023/07/10 01:03:51;;;;;;;6.30;3.95;;;;;;;22.73;38.97;98046.09;10514728;28;20076;-74
2023/07/10 01:09:12;;;;;;;6.38;3.80;;;;;;;22.71;38.82;98043.22;10514897;28;20116;-74
2023/07/10 01:14:34;;;;;;;6.33;3.30;;;;;;;22.68;38.80;98038.84;10528653;28;20044;-73
2023/07/10 01:20:00;;;;;;;7.00;3.70;;;;;;;22.65;38.85;98040.94;10487008;28;20120;-74
2023/07/10 01:25:20;;;;;;;4.93;3.90;;;;;;;22.62;38.86;98036.59;10514259;28;20538;-74
2023/07/10 01:30:43;;;;;;;8.35;4.35;;;;;;;22.55;38.33;98047.09;10500156;28;20094;-74
2023/07/10 01:36:04;;;;;;;7.20;3.97;;;;;;;22.49;38.84;98057.59;10543027;28;20123;-74
2023/07/10 01:41:32;;;;;;;7.93;3.88;;;;;;;22.43;39.01;98055.31;10500007;28;20109;-74
2023/07/10 01:46:54;;;;;;;7.82;4.00;;;;;;;22.41;38.72;98060.25;10499892;28;20072;-74
2023/07/10 01:52:15;;;;;;;6.13;3.83;;;;;;;22.40;38.72;98050.97;10499311;28;20487;-74
2023/07/10 01:57:36;;;;;;;7.67;3.90;;;;;;;22.30;39.20;98042.19;10513344;28;20119;-75
2023/07/10 02:02:57;;;;;;;6.97;3.33;;;;;;;22.14;39.39;98024.69;10512361;28;20099;-75
2023/07/10 02:08:18;;;;;;;6.95;3.63;;;;;;;21.96;39.74;98028.47;10541753;28;20118;-74
2023/07/10 02:13:38;;;;;;;5.53;3.83;;;;;;;21.80;40.02;98022.34;10512204;28;20044;-74
2023/07/10 02:18:59;;;;;;;8.05;3.90;;;;;;;21.69;40.50;98029.84;10525580;28;20044;-75
2023/07/10 02:24:20;;;;;;;8.00;3.85;;;;;;;21.58;40.74;98030.22;10512159;28;20043;-75
2023/07/10 02:29:41;;;;;;;7.85;3.83;;;;;;;21.52;40.94;98027.22;10497793;28;20490;-74
2023/07/10 02:35:03;;;;;;;4.97;3.53;;;;;;;21.55;40.93;98011.69;10498096;28;20043;-73
2023/07/10 02:40:23;;;;;;;6.68;4.13;;;;;;;21.57;41.00;98015.31;10511377;28;20516;-74
2023/07/10 02:45:45;;;;;;;8.60;4.20;;;;;;;21.67;40.90;98012.03;10525635;28;20110;-75
2023/07/10 02:51:06;;;;;;;6.63;4.25;;;;;;;21.73;41.00;98009.38;10511078;28;20071;-74
2023/07/10 02:56:27;;;;;;;9.77;4.25;;;;;;;21.75;41.03;98015.09;10511069;28;20524;-74
2023/07/10 03:01:48;;;;;;;8.27;4.22;;;;;;;21.80;40.78;98005.28;10524467;28;20047;-74
2023/07/10 03:07:08;;;;;;;6.53;4.20;;;;;;;21.80;40.71;98001.72;10510723;28;20162;-74
2023/07/10 03:12:29;;;;;;;7.07;4.45;;;;;;;21.73;40.22;98005.81;10510559;28;20111;-75
2023/07/10 03:17:50;;;;;;;8.43;4.18;;;;;;;21.68;40.37;98014.19;10496803;28;20120;-74
2023/07/10 03:23:10;;;;;;;5.25;3.65;;;;;;;21.69;40.41;98007.13;10510542;28;20067;-74
2023/07/10 03:28:34;;;;;;;10.50;4.65;;;;;;;21.64;40.85;98022.63;10498856;28;20123;-74
2023/07/10 03:33:55;;;;;;;14.30;4.35;;;;;;;21.77;40.79;98022.94;10504940;28;20041;-74
2023/07/10 03:39:15;;;;;;;8.70;4.07;;;;;;;21.99;40.67;98021.44;10490688;28;20064;-75
2023/07/10 03:44:36;;;;;;;6.47;3.83;;;;;;;22.25;40.65;98032.09;10504417;28;20075;-74
2023/07/10 03:49:57;;;;;;;8.68;4.45;;;;;;;22.47;40.56;98032.66;10531874;28;20541;-75
2023/07/10 03:55:17;;;;;;;5.68;3.95;;;;;;;22.71;40.07;98021.16;10531796;28;20446;-74
2023/07/10 04:00:38;;;;;;;6.45;3.75;;;;;;;22.74;40.25;98031.19;10546999;28;20123;-74
2023/07/10 04:05:59;;;;;;;7.78;3.60;;;;;;;22.95;39.83;98054.47;10517072;28;20052;-75
2023/07/10 04:11:21;;;;;;;7.10;4.60;;;;;;;22.98;39.89;98096.56;10531305;28;20124;-74
2023/07/10 04:16:41;;;;;;;6.20;4.57;;;;;;;22.86;40.33;98093.38;10502985;28;20074;-74
2023/07/10 04:22:02;;;;;;;6.40;4.38;;;;;;;22.92;41.00;98096.41;10530645;28;20063;-75
2023/07/10 04:27:22;;;;;;;6.43;4.28;;;;;;;23.00;41.45;98102.28;10530613;28;20539;-74
2023/07/10 04:32:43;;;;;;;9.02;4.90;;;;;;;22.93;41.63;98119.88;10516449;28;20043;-74
2023/07/10 04:38:05;;;;;;;13.23;4.53;;;;;;;22.72;42.24;98112.94;10529732;28;20102;-75
2023/07/10 04:43:26;;;;;;;11.48;4.95;;;;;;;22.39;43.03;98097.88;10515943;28;20074;-74
2023/07/10 04:48:48;;;;;;;7.28;4.90;;;;;;;22.26;43.45;98108.19;10515876;28;20089;-74
2023/07/10 04:54:08;;;;;;;7.63;4.72;;;;;;;21.94;44.27;98093.06;10515512;28;20120;-74
2023/07/10 04:59:33;;;;;;;10.93;4.40;;;;;;;21.90;45.24;98098.63;10502456;28;20462;-74
2023/07/10 05:04:53;;;;;;;8.90;5.05;;;;;;;22.25;44.99;98109.59;10514584;28;20084;-74
2023/07/10 05:10:14;;;;;;;8.20;4.70;;;;;;;22.50;45.04;98110.97;10515019;28;20461;-73
2023/07/10 05:15:35;;;;;;;8.07;4.53;;;;;;;22.60;45.07;98099.13;10514825;28;20101;-74
2023/07/10 05:20:57;;;;;;;7.20;4.93;;;;;;;22.73;45.07;98097.31;10511379;28;20127;-74
2023/07/10 05:26:19;;;;;;;12.90;5.60;;;;;;;23.06;44.81;98110.25;10514543;28;20044;-74
2023/07/10 05:31:40;;;;;;;8.87;4.50;;;;;;;23.46;44.15;98109.75;10514171;28;20072;-74
2023/07/10 05:37:01;;;;;;;9.27;4.93;;;;;;;23.58;43.13;98090.78;10513880;28;20048;-74
2023/07/10 05:42:22;;;;;;;9.00;4.82;;;;;;;23.94;42.22;98093.72;10499346;28;20115;-74
2023/07/10 05:47:43;;;;;;;6.80;5.00;;;;;;;24.33;42.01;98082.38;10513503;28;20094;-75
2023/07/10 05:53:04;;;;;;;8.73;5.30;;;;;;;24.76;41.17;98078.13;10512360;28;20462;-74
2023/07/10 05:58:27;;;;;;;7.82;4.50;;;;;;;25.62;39.65;98080.16;10512984;28;20046;-74
2023/07/10 06:03:49;;;;;;;6.80;5.13;;;;;;;26.15;37.46;98067.25;10513011;28;20083;-76
2023/07/10 06:09:11;;;;;;;10.40;5.15;;;;;;;26.57;36.67;98072.00;10512626;28;20120;-76
2023/07/10 06:14:32;;;;;;;7.80;4.93;;;;;;;26.92;36.11;98064.41;10512308;28;20044;-76
2023/07/10 06:19:53;;;;;;;8.43;4.82;;;;;;;27.92;35.00;98062.19;10512183;28;20052;-77
2023/07/10 06:25:16;;;;;;;9.43;4.63;;;;;;;28.21;33.44;98074.47;10540948;28;20048;-77
2023/07/10 06:30:40;;;;;;;5.88;4.45;;;;;;;28.12;33.28;98068.00;10525835;28;20063;-77
2023/07/10 06:36:02;;;;;;;6.80;4.32;;;;;;;28.13;33.36;98052.19;10511593;28;20036;-77
2023/07/10 06:41:27;;;;;;;9.45;4.32;;;;;;;28.00;33.13;98050.03;10511807;28;20477;-77
2023/07/10 06:46:48;;;;;;;9.88;4.93;;;;;;;28.51;33.24;98054.47;10540120;28;20060;-77
2023/07/10 06:52:09;;;;;;;11.30;4.40;;;;;;;29.22;32.79;98056.63;10524961;28;20040;-76
2023/07/10 06:57:30;;;;;;;9.13;4.55;;;;;;;28.99;31.88;98050.19;10524740;28;20071;-77
2023/07/10 07:02:50;;;;;;;6.28;4.07;;;;;;;29.05;32.35;98050.19;10524712;28;20469;-77
2023/07/10 07:08:12;;;;;;;6.82;4.25;;;;;;;29.66;32.02;98040.72;10524595;28;20067;-77
2023/07/10 07:13:34;;;;;;;7.60;4.28;;;;;;;30.69;30.34;98044.50;10539612;28;20040;-76
2023/07/10 07:18:55;;;;;;;8.38;4.00;;;;;;;31.55;29.01;98033.59;10524666;28;20059;-77
2023/07/10 07:24:26;;;;;;;6.05;3.95;;;;;;;32.15;28.44;98034.31;10513347;28;20470;-76
2023/07/10 07:29:50;;;;;;;7.90;4.60;;;;;;;32.41;27.07;98026.72;10524371;28;20040;-76
2023/07/10 07:35:11;;;;;;;7.30;4.10;;;;;;;32.39;26.95;98033.25;10510623;28;20040;-76
2023/07/10 07:40:32;;;;;;;5.45;3.83;;;;;;;32.15;27.37;98031.44;10510073;28;20383;-76
2023/07/10 07:45:54;;;;;;;6.20;4.18;;;;;;;31.41;27.64;98036.66;10496235;28;20048;-77
2023/07/10 07:51:16;;;;;;;7.57;4.35;;;;;;;30.57;28.07;98047.44;10496142;28;20124;-77
2023/07/10 07:56:37;;;;;;;8.88;3.88;;;;;;;29.78;28.86;98060.81;10523953;28;20036;-76
2023/07/10 08:01:58;;;;;;;7.53;4.67;;;;;;;29.10;29.69;98056.63;10509348;28;20040;-76
2023/07/10 08:07:20;;;;;;;7.72;4.20;;;;;;;28.62;30.32;98063.81;10523669;28;20054;-76
2023/07/10 08:12:42;;;;;;;8.15;4.60;;;;;;;28.11;32.85;98032.13;10509568;28;20066;-77
2023/07/10 08:18:03;;;;;;;9.48;4.38;;;;;;;28.16;33.99;97999.13;10517133;28;20392;-77
2023/07/10 08:23:25;;;;;;;12.48;4.97;;;;;;;28.16;36.55;98004.84;10530686;28;20041;-77
2023/07/10 08:28:46;;;;;;;8.02;4.20;;;;;;;28.83;36.30;98017.84;10530450;28;20048;-77
2023/07/10 08:34:07;;;;;;;9.38;5.18;;;;;;;29.28;35.27;98007.75;10545463;28;20044;-77
2023/07/10 08:39:28;;;;;;;6.80;4.37;;;;;;;29.53;33.69;98007.69;10516001;28;20097;-77
2023/07/10 08:44:52;;;;;;;8.20;4.70;;;;;;;29.53;33.43;98014.19;10516274;28;20051;-77
2023/07/10 08:50:17;;;;;;;8.45;4.55;;;;;;;31.05;32.10;98020.41;10529647;28;20044;-76
2023/07/10 08:55:42;;;;;;;9.43;4.32;;;;;;;31.91;30.35;98002.88;10529552;28;20070;-76
2023/07/10 09:01:04;;;;;;;7.93;4.90;;;;;;;31.48;29.38;98005.56;10544573;28;20089;-77
2023/07/10 09:06:42;;;;;;;8.35;4.63;;;;;;;30.76;29.91;98002.66;10514981;28;20044;-77
2023/07/10 09:12:09;;;;;;;11.88;4.90;;;;;;;31.00;30.07;97995.97;10528943;28;20393;-76
2023/07/10 09:17:43;;;;;;;8.43;4.55;;;;;;;30.99;30.19;97995.25;10529669;28;20043;-76
2023/07/10 09:23:27;;;;;;;11.07;4.70;;;;;;;30.61;30.75;98007.09;10528263;28;20489;-76
2023/07/10 09:29:09;;;;;;;10.10;4.60;;;;;;;31.51;30.53;97987.50;10543131;28;20044;-76
2023/07/10 09:34:32;;;;;;;12.88;5.28;;;;;;;32.75;29.04;97985.72;10528514;28;20497;-76
2023/07/10 09:39:53;;;;;;;10.32;4.60;;;;;;;33.83;27.11;97982.97;10513891;28;20040;-76
2023/07/10 09:45:14;;;;;;;8.82;5.00;;;;;;;34.56;25.56;97978.44;10499542;28;20485;-76
2023/07/10 09:50:36;;;;;;;7.18;4.28;;;;;;;34.54;24.67;97983.56;10527237;28;20047;-75
2023/07/10 09:55:57;;;;;;;8.75;4.30;;;;;;;34.76;24.27;97974.31;10527187;28;20044;-75
2023/07/10 10:01:18;;;;;;;11.60;4.47;;;;;;;35.62;23.50;97960.44;10526894;28;20044;-75
2023/07/10 10:06:41;;;;;;;11.82;4.57;;;;;;;36.26;21.85;97951.19;10512175;28;20540;-75
2023/07/10 10:12:18;;;;;;;10.93;4.50;;;;;;;35.46;22.11;97950.00;10499568;28;20040;-76
2023/07/10 10:17:41;;;;;;;8.70;4.60;;;;;;;35.02;22.80;97949.00;10527805;28;20048;-75
2023/07/10 10:23:02;;;;;;;9.98;4.65;;;;;;;35.61;22.71;97953.16;10498326;28;20051;-75
2023/07/10 10:28:29;;;;;;;6.40;4.38;;;;;;;35.71;21.78;97947.78;10498085;28;20043;-75
2023/07/10 10:33:58;;;;;;;10.00;4.88;;;;;;;34.47;22.65;97956.22;10497957;28;20388;-75
2023/07/10 10:39:39;;;;;;;9.40;4.38;;;;;;;32.60;25.09;97949.88;10524990;28;20044;-76
2023/07/10 10:45:26;;;;;;;12.60;4.90;;;;;;;30.89;30.89;97908.91;10511169;28;20044;-76
2023/07/10 10:50:59;;;;;;;10.13;5.20;;;;;;;31.16;32.34;97905.69;10512257;28;20044;-76
2023/07/10 10:56:36;;;;;;;11.25;4.78;;;;;;;32.13;30.75;97887.06;10524883;28;20044;-75
2023/07/10 11:02:16;;;;;;;8.90;4.80;;;;;;;33.49;29.18;97888.94;10524129;28;20040;-76
2023/07/10 11:07:38;;;;;;;10.00;4.90;;;;;;;34.06;27.62;97873.16;10524600;28;20036;-75
2023/07/10 11:12:59;;;;;;;11.23;5.22;;;;;;;34.93;27.21;97864.44;10524645;28;20036;-76
2023/07/10 11:18:20;;;;;;;;;;;;;;;35.35;26.33;97862.50;10511275;28;20048;-76
2023/07/10 11:23:41;;;;;;;8.25;4.30;;;;;;;35.58;24.86;97861.84;10524267;28;19982;-75
2023/07/10 11:29:22;;;;;;;;;;;;;;;35.31;24.50;97844.50;10539907;28;20040;-75
2023/07/10 11:35:13;;;;;;;7.80;3.97;;;;;;;34.18;24.38;97838.13;10522726;28;20285;-76
2023/07/10 11:40:44;;;;;;;5.20;3.58;;;;;;;32.62;26.41;97850.88;10501322;28;20044;-76
2023/07/10 11:46:16;;;;;;;12.35;3.78;;;;;;;31.56;27.91;97856.19;10510515;28;20438;-76
2023/07/10 11:51:38;;;;;;;10.48;3.28;;;;;;;30.48;32.08;97958.22;10516540;28;20044;-76
2023/07/10 11:57:08;;;;;;;11.60;3.65;;;;;;;27.67;42.12;97990.38;10505478;28;20074;-76
2023/07/10 12:02:36;;;;;;;7.80;2.58;;;;;;;25.64;45.45;97943.69;10531068;28;20076;-76
2023/07/10 12:08:13;;;;;;;7.55;2.70;;;;;;;25.06;47.93;97938.00;10531873;28;20114;-77
2023/07/10 12:13:34;;;;;;;7.40;2.55;;;;;;;24.88;49.35;97969.13;10531126;28;20044;-76
2023/07/10 12:19:02;;;;;;;9.02;3.05;;;;;;;24.46;50.32;97949.94;10517085;28;20067;-76
2023/07/10 12:24:23;;;;;;;8.48;2.95;;;;;;;24.55;54.05;97971.50;10503009;28;20064;-76
2023/07/10 12:29:51;;;;;;;7.05;3.30;;;;;;;25.84;54.11;97957.53;10516544;28;20470;-76
2023/07/10 12:35:14;;;;;;;12.00;3.55;;;;;;;27.98;52.78;97952.47;10516529;28;20529;-76
2023/07/10 12:40:35;;;;;;;6.15;3.40;;;;;;;29.77;50.66;97943.59;10502479;28;20142;-75
2023/07/10 12:46:00;;;;;;;8.38;3.55;;;;;;;30.76;48.00;97939.28;10502130;28;20044;-76
2023/07/10 12:51:28;;;;;;;11.52;4.07;;;;;;;30.31;46.80;97936.78;10515962;28;20068;-76
2023/07/10 12:56:53;;;;;;;7.05;3.80;;;;;;;31.06;45.23;97915.19;10516146;28;20044;-75
2023/07/10 13:02:22;;;;;;;9.32;3.92;;;;;;;31.02;44.59;97912.34;10514688;28;20063;-75
2023/07/10 13:07:43;;;;;;;9.00;4.18;;;;;;;30.88;43.03;97904.56;10515634;28;20040;-75
2023/07/10 13:13:05;;;;;;;7.67;4.50;;;;;;;31.10;43.17;97889.22;10528963;28;20059;-76
2023/07/10 13:18:31;;;;;;;10.43;4.68;;;;;;;30.27;43.57;97873.47;10514386;28;20048;-76
2023/07/10 13:23:53;;;;;;;8.73;3.88;;;;;;;30.22;44.10;97866.34;10514793;28;20044;-76
2023/07/10 13:29:13;;;;;;;9.97;4.37;;;;;;;30.36;43.08;97860.44;10500332;28;20474;-76
2023/07/10 13:34:35;;;;;;;9.55;3.55;;;;;;;30.47;41.99;97870.41;10513907;28;20047;-76
2023/07/10 13:39:55;;;;;;;9.45;4.57;;;;;;;30.27;41.56;97861.25;10513785;28;20489;-75
2023/07/10 13:45:17;;;;;;;6.95;4.53;;;;;;;30.39;41.66;97850.31;10499638;28;20101;-75
2023/07/10 13:50:38;;;;;;;7.28;4.20;;;;;;;30.56;41.63;97847.28;10527231;28;20105;-76
2023/07/10 13:55:59;;;;;;;11.45;4.53;;;;;;;30.70;40.47;97850.06;10513152;28;20470;-75
2023/07/10 14:01:22;;;;;;;7.93;4.15;;;;;;;30.87;41.04;97834.00;10541849;28;20097;-76
2023/07/10 14:06:47;;;;;;;8.20;4.20;;;;;;;30.78;40.84;97821.84;10513090;28;20383;-76
2023/07/10 14:12:12;;;;;;;8.15;4.18;;;;;;;30.47;42.07;97835.13;10512557;28;20039;-76
2023/07/10 14:17:33;;;;;;;11.32;4.72;;;;;;;30.60;41.75;97855.91;10498628;28;20127;-75
2023/07/10 14:22:55;;;;;;;;;;;;;;;30.84;41.39;97861.41;10498765;28;20040;-75
2023/07/10 14:28:21;;;;;;;6.53;4.10;;;;;;;30.87;41.25;97868.56;10541050;28;20266;-75
2023/07/10 14:33:42;;;;;;;11.02;4.47;;;;;;;30.45;41.44;97869.72;10525622;28;20090;-76
2023/07/10 14:39:03;;;;;;;8.38;5.05;;;;;;;30.13;41.73;97880.06;10540737;28;20409;-75
2023/07/10 14:44:24;;;;;;;9.52;4.75;;;;;;;29.62;42.68;97900.50;10525632;28;20047;-76
2023/07/10 14:49:45;;;;;;;7.67;3.67;;;;;;;29.53;43.49;97904.91;10510953;28;20044;-76
2023/07/10 14:55:16;;;;;;;7.72;4.10;;;;;;;29.90;42.78;97902.50;10511214;28;20466;-76
2023/07/10 15:00:37;;;;;;;10.00;4.63;;;;;;;29.75;43.13;97888.97;10511137;28;20126;-75
2023/07/10 15:05:59;;;;;;;9.55;4.55;;;;;;;29.80;43.33;97896.81;10523892;28;20056;-76
2023/07/10 15:11:20;;;;;;;7.53;5.07;;;;;;;30.56;42.65;97881.84;10496434;28;20040;-75
2023/07/10 15:16:41;;;;;;;;;;;;;;;31.39;40.13;97880.22;10511258;28;20115;-76
2023/07/10 15:22:03;;;;;;;6.95;4.50;;;;;;;31.41;39.74;97878.03;10538913;28;19927;-76
2023/07/10 15:27:24;;;;;;;11.02;4.32;;;;;;;31.26;39.33;97873.88;10548052;28;20118;-76
2023/07/10 15:32:45;;;;;;;7.15;4.47;;;;;;;31.09;39.32;97879.13;10518508;28;20047;-75
2023/07/10 15:38:15;;;;;;;6.93;4.60;;;;;;;31.07;39.22;97890.66;10518529;28;20410;-75
2023/07/10 15:43:36;;;;;;;10.07;4.45;;;;;;;30.78;38.33;97896.03;10519131;28;20044;-75
2023/07/10 15:48:57;;;;;;;8.10;4.57;;;;;;;30.54;38.41;97910.66;10518175;28;20094;-76
2023/07/10 15:54:19;;;;;;;8.88;4.93;;;;;;;30.33;38.95;97913.72;10517853;28;20064;-75
2023/07/10 15:59:40;;;;;;;7.38;4.78;;;;;;;29.97;39.83;97931.25;10517819;28;20548;-75
2023/07/10 16:05:01;;;;;;;6.83;5.00;;;;;;;29.79;40.23;97935.66;10503292;28;20048;-76
2023/07/10 16:10:22;;;;;;;12.32;4.63;;;;;;;29.59;40.66;97935.78;10517158;28;20040;-76
2023/07/10 16:15:43;;;;;;;8.27;4.80;;;;;;;29.50;40.59;97952.34;10517260;28;20044;-76
2023/07/10 16:21:23;;;;;;;7.50;4.85;;;;;;;29.39;40.83;97962.44;10531035;28;20127;-75
2023/07/10 16:26:47;;;;;;;7.68;4.90;;;;;;;29.29;41.44;97963.19;10530902;28;20047;-75
2023/07/10 16:32:15;;;;;;;9.32;4.93;;;;;;;29.54;41.08;97968.88;10517384;28;20371;-76
2023/07/10 16:37:36;;;;;;;8.88;4.72;;;;;;;29.56;41.70;97969.59;10529509;28;20126;-75
2023/07/10 16:42:58;;;;;;;9.60;4.72;;;;;;;29.37;41.54;97971.06;10530013;28;20047;-76
2023/07/10 16:48:21;;;;;;;8.80;4.95;;;;;;;28.90;42.20;97971.19;10502159;28;20079;-75
2023/07/10 16:53:43;;;;;;;8.18;5.10;;;;;;;28.43;42.67;97982.69;10530224;28;20059;-75
2023/07/10 16:59:03;;;;;;;8.55;5.43;;;;;;;28.09;43.89;97986.22;10501490;28;20052;-75
2023/07/10 17:04:24;;;;;;;9.68;5.28;;;;;;;27.82;45.17;97985.44;10515456;28;20098;-76
2023/07/10 17:09:45;;;;;;;10.57;5.57;;;;;;;27.74;45.66;97976.06;10529006;28;20044;-76
2023/07/10 17:15:07;;;;;;;8.50;5.47;;;;;;;27.68;45.81;97985.38;10544015;28;20497;-73
2023/07/10 17:20:28;;;;;;;7.80;5.45;;;;;;;27.57;47.00;97987.44;10514647;28;20043;-76
2023/07/10 17:25:49;;;;;;;12.00;6.10;;;;;;;27.25;48.10;97995.91;10528343;28;20398;-75
2023/07/10 17:31:16;;;;;;;10.50;5.63;;;;;;;27.00;49.32;98004.31;10514583;28;20115;-76
2023/07/10 17:36:37;;;;;;;9.30;5.63;;;;;;;26.65;50.91;98002.66;10527977;28;20040;-76
2023/07/10 17:41:58;;;;;;;8.75;5.60;;;;;;;26.46;51.96;98007.50;10527650;28;20040;-76
2023/07/10 17:47:19;;;;;;;7.43;5.13;;;;;;;26.12;52.98;98013.56;10498715;28;20036;-74
2023/07/10 17:52:39;;;;;;;7.78;5.28;;;;;;;26.04;53.20;98002.75;10527097;28;20124;-74
2023/07/10 17:58:05;;;;;;;9.57;5.18;;;;;;;25.87;53.82;98001.16;10513278;28;20444;-74
2023/07/10 18:03:27;;;;;;;7.05;5.60;;;;;;;25.73;54.32;98009.56;10513386;28;20543;-73
2023/07/10 18:08:49;;;;;;;11.82;5.53;;;;;;;25.65;54.24;98013.03;10512809;28;20095;-73
2023/07/10 18:14:11;;;;;;;7.72;5.78;;;;;;;25.57;54.88;98027.22;10512571;28;20067;-74
2023/07/10 18:19:32;;;;;;;7.03;5.67;;;;;;;25.57;54.52;98027.94;10512602;28;20072;-74
2023/07/10 18:24:53;;;;;;;11.98;6.28;;;;;;;25.56;54.29;98045.78;10526036;28;20068;-74
2023/07/10 18:30:14;;;;;;;8.43;6.00;;;;;;;25.50;54.67;98034.28;10525805;28;20048;-75
2023/07/10 18:35:35;;;;;;;10.43;6.63;;;;;;;25.38;54.39;98049.84;10511888;28;20100;-75
2023/07/10 18:40:56;;;;;;;7.97;5.65;;;;;;;25.25;54.54;98056.06;10525545;28;20477;-75
2023/07/10 18:46:19;;;;;;;9.35;7.13;;;;;;;25.04;54.67;98061.47;10511716;28;20170;-75
2023/07/10 18:51:40;;;;;;;14.18;6.90;;;;;;;24.91;55.25;98065.53;10497405;28;20039;-75
2023/07/10 18:57:01;;;;;;;11.32;7.00;;;;;;;24.76;55.47;98061.72;10524601;28;20036;-75
2023/07/10 19:02:21;;;;;;;9.73;7.85;;;;;;;24.57;55.67;98062.81;10510698;28;20490;-75
2023/07/10 19:07:42;;;;;;;10.60;7.75;;;;;;;24.45;56.11;98065.47;10524907;28;20044;-75
2023/07/10 19:13:08;;;;;;;13.80;7.55;;;;;;;24.32;56.29;98063.78;10524717;28;20063;-75
2023/07/10 19:18:35;;;;;;;11.30;7.45;;;;;;;24.27;56.80;98077.97;10510935;28;20474;-75
2023/07/10 19:23:56;;;;;;;10.25;7.47;;;;;;;24.24;56.55;98090.75;10496294;28;20059;-75
2023/07/10 19:29:17;;;;;;;9.52;7.70;;;;;;;24.21;56.41;98089.25;10496380;28;20040;-75
2023/07/10 19:34:38;;;;;;;12.95;7.38;;;;;;;24.15;56.97;98086.28;10524447;28;20511;-76
2023/07/10 19:39:59;;;;;;;10.00;6.88;;;;;;;24.13;56.91;98102.66;10510029;28;20498;-76
2023/07/10 19:45:20;;;;;;;13.95;7.18;;;;;;;24.02;56.88;98110.25;10510209;28;20064;-76
2023/07/10 19:50:41;;;;;;;10.18;6.85;;;;;;;23.95;57.11;98106.56;10524304;28;20102;-75
2023/07/10 19:56:14;;;;;;;8.13;6.50;;;;;;;23.82;56.79;98112.69;10509954;28;20055;-75
2023/07/10 20:01:35;;;;;;;8.63;6.15;;;;;;;23.69;57.05;98120.25;10510549;28;20078;-76
2023/07/10 20:06:55;;;;;;;11.23;5.38;;;;;;;23.61;57.45;98117.22;10509283;28;20080;-76
2023/07/10 20:12:21;;;;;;;6.30;5.30;;;;;;;23.49;57.55;98116.94;10486862;28;20486;-76
2023/07/10 20:17:45;;;;;;;7.40;5.28;;;;;;;23.41;57.37;98106.09;10503566;28;20075;-75
2023/07/10 20:23:13;;;;;;;9.20;5.30;;;;;;;23.30;57.68;98110.09;10517823;28;20040;-75
2023/07/10 20:28:38;;;;;;;7.00;5.15;;;;;;;23.22;57.52;98122.03;10502900;28;20075;-76
2023/07/10 20:33:59;;;;;;;6.80;5.53;;;;;;;23.12;57.54;98128.19;10530442;28;20059;-76
2023/07/10 20:39:19;;;;;;;8.35;5.20;;;;;;;23.05;57.84;98134.41;10530337;28;20478;-76
2023/07/10 20:44:40;;;;;;;7.60;4.93;;;;;;;22.99;57.78;98129.31;10502314;28;20120;-76
2023/07/10 20:50:01;;;;;;;7.40;5.43;;;;;;;22.98;58.15;98132.84;10544927;28;20472;-74
2023/07/10 20:55:23;;;;;;;;;;;;;;;22.89;58.57;98128.34;10503286;28;20036;-76
2023/07/10 21:00:45;;;;;;;6.22;4.95;;;;;;;22.82;58.23;98128.16;10529276;28;19959;-76
2023/07/10 21:06:08;;;;;;;6.40;4.55;;;;;;;22.80;58.00;98139.47;10515193;28;20071;-76
2023/07/10 21:11:31;;;;;;;7.00;4.88;;;;;;;22.74;58.11;98125.09;10514952;28;20115;-76
2023/07/10 21:16:52;;;;;;;5.55;4.00;;;;;;;22.65;58.34;98136.94;10501300;28;20064;-75
2023/07/10 21:22:13;;;;;;;7.28;4.00;;;;;;;22.57;58.48;98143.13;10528571;28;20072;-75
2023/07/10 21:27:35;;;;;;;5.50;4.00;;;;;;;22.45;58.38;98140.69;10514395;28;20120;-74
2023/07/10 21:32:56;;;;;;;7.22;4.40;;;;;;;22.43;58.34;98139.91;10514613;28;20132;-76
2023/07/10 21:38:16;;;;;;;7.25;3.45;;;;;;;22.39;58.48;98140.53;10543142;28;20067;-76
2023/07/10 21:43:37;;;;;;;6.95;3.90;;;;;;;22.33;58.85;98139.63;10527988;28;20465;-75
2023/07/10 21:48:58;;;;;;;7.78;4.13;;;;;;;22.22;59.10;98139.38;10513480;28;20060;-75
2023/07/10 21:54:18;;;;;;;6.38;4.05;;;;;;;22.16;59.23;98142.03;10499422;28;20517;-76
2023/07/10 21:59:39;;;;;;;7.35;4.07;;;;;;;22.15;59.54;98142.69;10542186;28;20071;-75
2023/07/10 22:05:00;;;;;;;7.63;3.80;;;;;;;22.07;59.11;98139.63;10526728;28;20437;-75
2023/07/10 22:10:21;;;;;;;5.55;4.00;;;;;;;21.97;59.24;98146.44;10512861;28;20063;-75
2023/07/10 22:15:42;;;;;;;6.28;3.58;;;;;;;21.88;59.66;98141.91;10541621;28;20070;-75
2023/07/10 22:21:04;;;;;;;6.30;3.72;;;;;;;21.82;59.88;98155.94;10512518;28;20074;-76
2023/07/10 22:26:25;;;;;;;6.70;3.42;;;;;;;21.71;59.97;98145.66;10512287;28;20055;-76
2023/07/10 22:31:45;;;;;;;4.90;3.25;;;;;;;21.61;60.36;98151.03;10540609;28;20064;-76
2023/07/10 22:37:08;;;;;;;5.50;3.28;;;;;;;21.53;60.06;98148.69;10525715;28;20114;-75
2023/07/10 22:42:29;;;;;;;6.07;2.95;;;;;;;21.47;60.09;98150.59;10525619;28;20040;-75
2023/07/10 22:47:51;;;;;;;5.05;3.05;;;;;;;21.45;60.30;98144.88;10525591;28;20044;-76
2023/07/10 22:53:12;;;;;;;5.28;3.30;;;;;;;21.39;60.39;98153.91;10525264;28;20111;-75
2023/07/10 22:58:32;;;;;;;4.50;3.03;;;;;;;21.38;59.97;98144.66;10511294;28;20064;-75
2023/07/10 23:03:53;;;;;;;4.43;3.05;;;;;;;21.38;60.30;98147.50;10525067;28;20079;-76
2023/07/10 23:09:14;;;;;;;4.57;3.28;;;;;;;21.36;60.61;98147.44;10496813;28;20120;-75
2023/07/10 23:14:34;;;;;;;5.68;3.40;;;;;;;21.31;60.73;98151.53;10539927;28;20060;-75
2023/07/10 23:19:55;;;;;;;4.32;3.00;;;;;;;21.27;60.50;98154.25;10524688;28;20458;-75
2023/07/10 23:25:15;;;;;;;4.28;2.70;;;;;;;21.23;60.84;98153.34;10539537;28;20079;-75
2023/07/10 23:30:36;;;;;;;5.20;3.05;;;;;;;21.22;60.97;98152.63;10510226;28;20047;-75
2023/07/10 23:35:56;;;;;;;4.03;3.28;;;;;;;21.19;61.11;98156.06;10510434;28;20067;-76
2023/07/10 23:41:18;;;;;;;5.63;3.58;;;;;;;21.20;61.13;98149.00;10524371;28;20559;-76
2023/07/10 23:46:38;;;;;;;6.13;3.17;;;;;;;21.27;61.14;98157.09;10502678;28;20190;-75
2023/07/10 23:51:59;;;;;;;6.03;2.88;;;;;;;21.23;61.19;98162.63;10532108;28;20525;-74
2023/07/10 23:57:19;;;;;;;4.97;3.10;;;;;;;21.18;61.11;98143.28;10532052;28;20075;-75
